sensor_id;sensor_type;location;lat;lon;timestamp;pressure;altitude;pressure_sealevel;temperature;humidity
13734;BME280;43298;52.560;13.508;2022-07-09T00:01:00;101834.88;;;15.23;100.00
13734;BME280;43298;52.560;13.508;2022-07-09T00:03:26;101839.28;;;15.21;100.00
13734;BME280;43298;52.560;13.508;2022-07-09T00:05:52;101829.22;;;15.13;100.00
13734;BME280;43298;52.560;13.508;2022-07-09T00:08:18;101833.50;;;15.14;100.00
13734;BME280;43298;52.560;13.508;2022-07-09T00:10:44;101836.06;;;15.16;100.00
13734;BME280;43298;52.560;13.508;2022-07-09T00:13:09;101825.25;;;15.04;100.00
13734;BME280;43298;52.560;13.508;2022-07-09T00:15:36;101835.84;;;15.00;100.00
13734;BME280;43298;52.560;13.508;2022-07-09T00:18:01;101829.66;;;15.02;100.00
13734;BME280;43298;52.560;13.508;2022-07-09T00:20:27;101830.00;;;14.95;100.00
13734;BME280;43298;52.560;13.508;2022-07-09T00:22:53;101828.69;;;14.85;100.00
13734;BME280;43298;52.560;13.508;2022-07-09T00:25:19;101833.91;;;14.85;100.00
13734;BME280;43298;52.560;13.508;2022-07-09T00:27:45;101835.19;;;14.75;100.00
13734;BME280;43298;52.560;13.508;2022-07-09T00:30:11;101829.63;;;14.62;100.00
13734;BME280;43298;52.560;13.508;2022-07-09T00:32:37;101828.94;;;14.59;100.00
13734;BME280;43298;52.560;13.508;2022-07-09T00:35:03;101832.22;;;14.62;100.00
13734;BME280;43298;52.560;13.508;2022-07-09T00:37:29;101831.72;;;14.54;100.00
13734;BME280;43298;52.560;13.508;2022-07-09T00:39:55;101828.38;;;14.51;100.00
13734;BME280;43298;52.560;13.508;2022-07-09T00:42:20;101835.47;;;14.47;100.00
13734;BME280;43298;52.560;13.508;2022-07-09T00:44:46;101832.06;;;14.45;100.00
13734;BME280;43298;52.560;13.508;2022-07-09T00:47:12;101837.22;;;14.47;100.00
13734;BME280;43298;52.560;13.508;2022-07-09T00:49:40;101830.63;;;14.38;100.00
13734;BME280;43298;52.560;13.508;2022-07-09T00:52:11;101834.25;;;14.34;100.00
13734;BME280;43298;52.560;13.508;2022-07-09T00:54:37;101834.38;;;14.31;100.00
13734;BME280;43298;52.560;13.508;2022-07-09T00:57:07;101830.25;;;14.26;100.00
13734;BME280;43298;52.560;13.508;2022-07-09T00:59:35;101837.22;;;14.25;100.00
13734;BME280;43298;52.560;13.508;2022-07-09T01:02:02;101831.97;;;14.27;100.00
13734;BME280;43298;52.560;13.508;2022-07-09T01:04:28;101839.22;;;14.17;100.00
13734;BME280;43298;52.560;13.508;2022-07-09T01:06:55;101830.88;;;14.09;100.00
13734;BME280;43298;52.560;13.508;2022-07-09T01:09:21;101833.47;;;14.09;100.00
13734;BME280;43298;52.560;13.508;2022-07-09T01:11:47;101830.09;;;14.07;100.00
13734;BME280;43298;52.560;13.508;2022-07-09T01:14:13;101828.38;;;14.06;100.00
13734;BME280;43298;52.560;13.508;2022-07-09T01:16:39;101825.25;;;13.98;100.00
13734;BME280;43298;52.560;13.508;2022-07-09T01:19:05;101812.56;;;13.91;100.00
13734;BME280;43298;52.560;13.508;2022-07-09T01:21:32;101815.44;;;13.83;100.00
13734;BME280;43298;52.560;13.508;2022-07-09T01:23:58;101811.47;;;13.73;100.00
13734;BME280;43298;52.560;13.508;2022-07-09T01:26:24;101813.16;;;13.74;100.00
13734;BME280;43298;52.560;13.508;2022-07-09T01:28:51;101816.78;;;13.70;100.00
13734;BME280;43298;52.560;13.508;2022-07-09T01:31:17;101812.72;;;13.63;100.00
13734;BME280;43298;52.560;13.508;2022-07-09T01:33:42;101810.91;;;13.65;100.00
13734;BME280;43298;52.560;13.508;2022-07-09T01:36:08;101805.09;;;13.59;100.00
13734;BME280;43298;52.560;13.508;2022-07-09T01:38:34;101796.66;;;13.52;100.00
13734;BME280;43298;52.560;13.508;2022-07-09T01:41:01;101794.06;;;13.52;100.00
13734;BME280;43298;52.560;13.508;2022-07-09T01:43:27;101793.28;;;13.50;100.00
13734;BME280;43298;52.560;13.508;2022-07-09T01:45:56;101786.06;;;13.58;100.00
13734;BME280;43298;52.560;13.508;2022-07-09T01:48:22;101786.22;;;13.54;100.00
13734;BME280;43298;52.560;13.508;2022-07-09T01:50:48;101788.31;;;13.44;100.00
13734;BME280;43298;52.560;13.508;2022-07-09T01:53:14;101782.38;;;13.41;100.00
13734;BME280;43298;52.560;13.508;2022-07-09T01:55:40;101781.59;;;13.39;100.00
13734;BME280;43298;52.560;13.508;2022-07-09T01:58:06;101778.03;;;13.41;100.00
13734;BME280;43298;52.560;13.508;2022-07-09T02:00:32;101774.94;;;13.32;100.00
13734;BME280;43298;52.560;13.508;2022-07-09T02:02:57;101771.00;;;13.20;100.00
13734;BME280;43298;52.560;13.508;2022-07-09T02:05:23;101764.84;;;13.23;100.00
13734;BME280;43298;52.560;13.508;2022-07-09T02:07:49;101771.25;;;13.14;100.00
13734;BME280;43298;52.560;13.508;2022-07-09T02:10:15;101768.81;;;13.10;100.00
13734;BME280;43298;52.560;13.508;2022-07-09T02:12:41;101762.66;;;13.12;100.00
13734;BME280;43298;52.560;13.508;2022-07-09T02:15:08;101761.59;;;13.18;100.00
13734;BME280;43298;52.560;13.508;2022-07-09T02:17:36;101757.34;;;13.15;100.00
13734;BME280;43298;52.560;13.508;2022-07-09T02:20:03;101758.41;;;13.10;100.00
13734;BME280;43298;52.560;13.508;2022-07-09T02:22:30;101755.78;;;13.11;100.00
13734;BME280;43298;52.560;13.508;2022-07-09T02:24:56;101744.56;;;13.09;100.00
13734;BME280;43298;52.560;13.508;2022-07-09T02:27:22;101753.59;;;12.99;100.00
13734;BME280;43298;52.560;13.508;2022-07-09T02:29:48;101746.66;;;13.00;100.00
13734;BME280;43298;52.560;13.508;2022-07-09T02:32:14;101749.53;;;12.91;100.00
13734;BME280;43298;52.560;13.508;2022-07-09T02:34:39;101748.84;;;12.86;100.00
13734;BME280;43298;52.560;13.508;2022-07-09T02:37:06;101747.16;;;12.85;100.00
13734;BME280;43298;52.560;13.508;2022-07-09T02:39:32;101752.41;;;12.83;100.00
13734;BME280;43298;52.560;13.508;2022-07-09T02:41:58;101744.78;;;12.79;100.00
13734;BME280;43298;52.560;13.508;2022-07-09T02:44:23;101753.19;;;12.85;100.00
13734;BME280;43298;52.560;13.508;2022-07-09T02:46:49;101756.69;;;12.84;100.00
13734;BME280;43298;52.560;13.508;2022-07-09T02:49:15;101752.88;;;12.94;100.00
13734;BME280;43298;52.560;13.508;2022-07-09T02:51:41;101752.72;;;13.00;100.00
13734;BME280;43298;52.560;13.508;2022-07-09T02:54:07;101755.06;;;13.06;100.00
13734;BME280;43298;52.560;13.508;2022-07-09T02:56:33;101761.06;;;13.08;100.00
13734;BME280;43298;52.560;13.508;2022-07-09T02:58:59;101757.47;;;13.12;100.00
13734;BME280;43298;52.560;13.508;2022-07-09T03:01:25;101756.28;;;13.21;100.00
13734;BME280;43298;52.560;13.508;2022-07-09T03:03:51;101757.19;;;13.20;100.00
13734;BME280;43298;52.560;13.508;2022-07-09T03:06:17;101749.47;;;13.18;100.00
13734;BME280;43298;52.560;13.508;2022-07-09T03:08:43;101755.53;;;13.17;100.00
13734;BME280;43298;52.560;13.508;2022-07-09T03:11:09;101763.22;;;13.20;100.00
13734;BME280;43298;52.560;13.508;2022-07-09T03:13:36;101762.31;;;13.21;100.00
13734;BME280;43298;52.560;13.508;2022-07-09T03:16:05;101759.72;;;13.21;100.00
13734;BME280;43298;52.560;13.508;2022-07-09T03:18:32;101762.09;;;13.27;100.00
13734;BME280;43298;52.560;13.508;2022-07-09T03:20:59;101770.69;;;13.29;100.00
13734;BME280;43298;52.560;13.508;2022-07-09T03:23:25;101774.88;;;13.33;100.00
13734;BME280;43298;52.560;13.508;2022-07-09T03:25:51;101767.69;;;13.40;100.00
13734;BME280;43298;52.560;13.508;2022-07-09T03:28:17;101773.75;;;13.40;100.00
13734;BME280;43298;52.560;13.508;2022-07-09T03:30:43;101775.28;;;13.46;100.00
13734;BME280;43298;52.560;13.508;2022-07-09T03:33:09;101780.41;;;13.47;100.00
13734;BME280;43298;52.560;13.508;2022-07-09T03:35:35;101781.13;;;13.51;100.00
13734;BME280;43298;52.560;13.508;2022-07-09T03:38:00;101780.16;;;13.53;100.00
13734;BME280;43298;52.560;13.508;2022-07-09T03:40:26;101778.47;;;13.52;100.00
13734;BME280;43298;52.560;13.508;2022-07-09T03:42:52;101778.97;;;13.62;100.00
13734;BME280;43298;52.560;13.508;2022-07-09T03:45:18;101768.47;;;13.65;100.00
13734;BME280;43298;52.560;13.508;2022-07-09T03:47:44;101769.09;;;13.71;100.00
13734;BME280;43298;52.560;13.508;2022-07-09T03:50:09;101772.47;;;13.73;100.00
13734;BME280;43298;52.560;13.508;2022-07-09T03:52:37;101767.28;;;13.73;100.00
13734;BME280;43298;52.560;13.508;2022-07-09T03:55:04;101763.66;;;13.77;100.00
13734;BME280;43298;52.560;13.508;2022-07-09T03:57:30;101770.38;;;13.83;100.00
13734;BME280;43298;52.560;13.508;2022-07-09T03:59:56;101777.19;;;13.85;100.00
13734;BME280;43298;52.560;13.508;2022-07-09T04:02:21;101780.59;;;13.87;100.00
13734;BME280;43298;52.560;13.508;2022-07-09T04:04:48;101773.66;;;13.88;100.00
13734;BME280;43298;52.560;13.508;2022-07-09T04:07:14;101788.19;;;13.93;100.00
13734;BME280;43298;52.560;13.508;2022-07-09T04:09:40;101783.03;;;13.92;100.00
13734;BME280;43298;52.560;13.508;2022-07-09T04:12:07;101773.47;;;13.92;100.00
13734;BME280;43298;52.560;13.508;2022-07-09T04:14:33;101782.78;;;13.98;100.00
13734;BME280;43298;52.560;13.508;2022-07-09T04:16:58;101772.50;;;13.95;100.00
13734;BME280;43298;52.560;13.508;2022-07-09T04:19:24;101776.75;;;13.97;100.00
13734;BME280;43298;52.560;13.508;2022-07-09T04:21:50;101772.88;;;14.07;100.00
13734;BME280;43298;52.560;13.508;2022-07-09T04:24:16;101764.88;;;14.12;100.00
13734;BME280;43298;52.560;13.508;2022-07-09T04:26:43;101768.97;;;14.17;100.00
13734;BME280;43298;52.560;13.508;2022-07-09T04:29:08;101769.63;;;14.24;100.00
13734;BME280;43298;52.560;13.508;2022-07-09T04:31:34;101764.44;;;14.24;100.00
13734;BME280;43298;52.560;13.508;2022-07-09T04:34:01;101773.50;;;14.35;100.00
13734;BME280;43298;52.560;13.508;2022-07-09T04:36:26;101772.88;;;14.29;100.00
13734;BME280;43298;52.560;13.508;2022-07-09T04:38:53;101768.53;;;14.29;100.00
13734;BME280;43298;52.560;13.508;2022-07-09T04:41:20;101761.56;;;14.30;100.00
13734;BME280;43298;52.560;13.508;2022-07-09T04:43:46;101772.66;;;14.35;100.00
13734;BME280;43298;52.560;13.508;2022-07-09T04:46:12;101762.19;;;14.36;100.00
13734;BME280;43298;52.560;13.508;2022-07-09T04:48:39;101762.72;;;14.44;100.00
13734;BME280;43298;52.560;13.508;2022-07-09T04:51:05;101770.56;;;14.43;100.00
13734;BME280;43298;52.560;13.508;2022-07-09T04:53:31;101769.47;;;14.48;100.00
13734;BME280;43298;52.560;13.508;2022-07-09T04:55:57;101763.03;;;14.57;100.00
13734;BME280;43298;52.560;13.508;2022-07-09T04:58:23;101766.97;;;14.67;100.00
13734;BME280;43298;52.560;13.508;2022-07-09T05:00:48;101757.31;;;14.69;100.00
13734;BME280;43298;52.560;13.508;2022-07-09T05:03:14;101764.94;;;14.73;100.00
13734;BME280;43298;52.560;13.508;2022-07-09T05:05:40;101758.38;;;14.85;100.00
13734;BME280;43298;52.560;13.508;2022-07-09T05:08:06;101757.69;;;15.00;100.00
13734;BME280;43298;52.560;13.508;2022-07-09T05:10:31;101758.44;;;15.03;100.00
13734;BME280;43298;52.560;13.508;2022-07-09T05:12:57;101755.53;;;15.09;100.00
13734;BME280;43298;52.560;13.508;2022-07-09T05:15:23;101763.34;;;15.09;100.00
13734;BME280;43298;52.560;13.508;2022-07-09T05:17:49;101761.66;;;15.08;100.00
13734;BME280;43298;52.560;13.508;2022-07-09T05:20:14;101760.91;;;15.07;100.00
13734;BME280;43298;52.560;13.508;2022-07-09T05:22:40;101761.13;;;15.21;100.00
13734;BME280;43298;52.560;13.508;2022-07-09T05:25:06;101754.09;;;15.23;100.00
13734;BME280;43298;52.560;13.508;2022-07-09T05:27:40;101759.88;;;15.29;100.00
13734;BME280;43298;52.560;13.508;2022-07-09T05:30:07;101763.03;;;15.37;100.00
13734;BME280;43298;52.560;13.508;2022-07-09T05:32:33;101758.94;;;15.50;100.00
13734;BME280;43298;52.560;13.508;2022-07-09T05:34:59;101754.72;;;15.48;100.00
13734;BME280;43298;52.560;13.508;2022-07-09T05:37:25;101750.78;;;15.58;100.00
13734;BME280;43298;52.560;13.508;2022-07-09T05:39:51;101752.72;;;15.53;100.00
13734;BME280;43298;52.560;13.508;2022-07-09T05:42:16;101750.19;;;15.70;100.00
13734;BME280;43298;52.560;13.508;2022-07-09T05:44:42;101745.03;;;15.87;100.00
13734;BME280;43298;52.560;13.508;2022-07-09T05:47:08;101751.25;;;15.84;100.00
13734;BME280;43298;52.560;13.508;2022-07-09T05:49:34;101752.41;;;15.79;100.00
13734;BME280;43298;52.560;13.508;2022-07-09T05:51:59;101748.72;;;15.83;100.00
13734;BME280;43298;52.560;13.508;2022-07-09T05:54:25;101751.47;;;15.80;100.00
13734;BME280;43298;52.560;13.508;2022-07-09T05:56:51;101744.50;;;15.80;100.00
13734;BME280;43298;52.560;13.508;2022-07-09T05:59:17;101745.97;;;15.86;100.00
13734;BME280;43298;52.560;13.508;2022-07-09T06:01:42;101750.06;;;15.91;100.00
13734;BME280;43298;52.560;13.508;2022-07-09T06:04:09;101747.38;;;15.93;100.00
13734;BME280;43298;52.560;13.508;2022-07-09T06:06:35;101747.38;;;16.10;100.00
13734;BME280;43298;52.560;13.508;2022-07-09T06:09:00;101744.78;;;16.10;100.00
13734;BME280;43298;52.560;13.508;2022-07-09T06:11:26;101744.53;;;15.97;100.00
13734;BME280;43298;52.560;13.508;2022-07-09T06:13:52;101734.09;;;15.97;100.00
13734;BME280;43298;52.560;13.508;2022-07-09T06:16:18;101738.34;;;16.00;100.00
13734;BME280;43298;52.560;13.508;2022-07-09T06:18:44;101731.84;;;16.08;100.00
13734;BME280;43298;52.560;13.508;2022-07-09T06:21:09;101733.72;;;16.05;100.00
13734;BME280;43298;52.560;13.508;2022-07-09T06:23:35;101728.69;;;16.19;100.00
13734;BME280;43298;52.560;13.508;2022-07-09T06:26:01;101725.63;;;16.28;100.00
13734;BME280;43298;52.560;13.508;2022-07-09T06:28:27;101725.31;;;16.34;100.00
13734;BME280;43298;52.560;13.508;2022-07-09T06:30:52;101724.84;;;16.44;100.00
13734;BME280;43298;52.560;13.508;2022-07-09T06:33:18;101730.13;;;16.43;100.00
13734;BME280;43298;52.560;13.508;2022-07-09T06:35:44;101727.97;;;16.51;100.00
13734;BME280;43298;52.560;13.508;2022-07-09T06:38:10;101736.19;;;16.60;100.00
13734;BME280;43298;52.560;13.508;2022-07-09T06:40:35;101734.50;;;16.59;100.00
13734;BME280;43298;52.560;13.508;2022-07-09T06:43:01;101744.00;;;16.60;100.00
13734;BME280;43298;52.560;13.508;2022-07-09T06:45:27;101747.78;;;16.55;100.00
13734;BME280;43298;52.560;13.508;2022-07-09T06:47:53;101750.69;;;16.49;100.00
13734;BME280;43298;52.560;13.508;2022-07-09T06:50:19;101749.16;;;16.62;100.00
13734;BME280;43298;52.560;13.508;2022-07-09T06:52:45;101741.91;;;16.84;100.00
13734;BME280;43298;52.560;13.508;2022-07-09T06:55:11;101737.72;;;17.14;100.00
13734;BME280;43298;52.560;13.508;2022-07-09T06:57:37;101732.84;;;17.23;100.00
13734;BME280;43298;52.560;13.508;2022-07-09T07:00:05;101726.47;;;17.29;100.00
13734;BME280;43298;52.560;13.508;2022-07-09T07:02:32;101728.19;;;17.13;100.00
13734;BME280;43298;52.560;13.508;2022-07-09T07:04:58;101732.03;;;17.06;100.00
13734;BME280;43298;52.560;13.508;2022-07-09T07:07:23;101728.75;;;17.02;100.00
13734;BME280;43298;52.560;13.508;2022-07-09T07:09:49;101731.66;;;17.13;100.00
13734;BME280;43298;52.560;13.508;2022-07-09T07:12:15;101728.19;;;17.13;100.00
13734;BME280;43298;52.560;13.508;2022-07-09T07:14:41;101718.16;;;17.05;100.00
13734;BME280;43298;52.560;13.508;2022-07-09T07:17:08;101728.66;;;17.36;100.00
13734;BME280;43298;52.560;13.508;2022-07-09T07:19:34;101714.63;;;17.54;100.00
13734;BME280;43298;52.560;13.508;2022-07-09T07:22:00;101714.66;;;17.37;100.00
13734;BME280;43298;52.560;13.508;2022-07-09T07:24:26;101712.84;;;17.70;100.00
13734;BME280;43298;52.560;13.508;2022-07-09T07:26:52;101714.50;;;18.03;100.00
13734;BME280;43298;52.560;13.508;2022-07-09T07:29:19;101718.28;;;18.13;100.00
13734;BME280;43298;52.560;13.508;2022-07-09T07:31:45;101716.44;;;18.29;100.00
13734;BME280;43298;52.560;13.508;2022-07-09T07:34:11;101719.88;;;18.15;100.00
13734;BME280;43298;52.560;13.508;2022-07-09T07:36:37;101716.91;;;18.21;100.00
13734;BME280;43298;52.560;13.508;2022-07-09T07:39:03;101720.72;;;18.16;100.00
13734;BME280;43298;52.560;13.508;2022-07-09T07:41:29;101718.00;;;18.33;100.00
13734;BME280;43298;52.560;13.508;2022-07-09T07:43:55;101718.50;;;18.24;100.00
13734;BME280;43298;52.560;13.508;2022-07-09T07:46:21;101716.44;;;18.29;100.00
13734;BME280;43298;52.560;13.508;2022-07-09T07:48:46;101710.34;;;18.14;100.00
13734;BME280;43298;52.560;13.508;2022-07-09T07:51:12;101717.50;;;18.11;100.00
13734;BME280;43298;52.560;13.508;2022-07-09T07:53:38;101719.63;;;18.20;100.00
13734;BME280;43298;52.560;13.508;2022-07-09T07:56:05;101721.50;;;18.47;100.00
13734;BME280;43298;52.560;13.508;2022-07-09T07:58:32;101715.84;;;18.55;100.00
13734;BME280;43298;52.560;13.508;2022-07-09T08:00:59;101713.19;;;18.25;100.00
13734;BME280;43298;52.560;13.508;2022-07-09T08:03:25;101718.06;;;18.02;100.00
13734;BME280;43298;52.560;13.508;2022-07-09T08:05:51;101716.63;;;17.96;100.00
13734;BME280;43298;52.560;13.508;2022-07-09T08:08:17;101718.22;;;17.83;100.00
13734;BME280;43298;52.560;13.508;2022-07-09T08:10:45;101721.28;;;17.60;100.00
13734;BME280;43298;52.560;13.508;2022-07-09T08:13:11;101718.81;;;17.41;100.00
13734;BME280;43298;52.560;13.508;2022-07-09T08:15:38;101712.41;;;17.47;100.00
13734;BME280;43298;52.560;13.508;2022-07-09T08:18:04;101705.59;;;17.75;100.00
13734;BME280;43298;52.560;13.508;2022-07-09T08:20:30;101719.25;;;17.96;100.00
13734;BME280;43298;52.560;13.508;2022-07-09T08:22:56;101706.63;;;18.18;100.00
13734;BME280;43298;52.560;13.508;2022-07-09T08:25:22;101697.72;;;18.36;100.00
13734;BME280;43298;52.560;13.508;2022-07-09T08:27:48;101688.94;;;18.51;100.00
13734;BME280;43298;52.560;13.508;2022-07-09T08:30:15;101685.81;;;18.74;100.00
13734;BME280;43298;52.560;13.508;2022-07-09T08:32:40;101688.72;;;18.84;100.00
13734;BME280;43298;52.560;13.508;2022-07-09T08:35:07;101684.97;;;18.88;100.00
13734;BME280;43298;52.560;13.508;2022-07-09T08:37:33;101693.31;;;18.94;100.00
13734;BME280;43298;52.560;13.508;2022-07-09T08:40:00;101693.03;;;18.85;100.00
13734;BME280;43298;52.560;13.508;2022-07-09T08:42:27;101686.66;;;18.75;100.00
13734;BME280;43298;52.560;13.508;2022-07-09T08:44:54;101683.94;;;18.90;100.00
13734;BME280;43298;52.560;13.508;2022-07-09T08:47:20;101685.63;;;18.63;100.00
13734;BME280;43298;52.560;13.508;2022-07-09T08:49:47;101687.25;;;18.94;100.00
13734;BME280;43298;52.560;13.508;2022-07-09T08:52:15;101683.94;;;19.18;100.00
13734;BME280;43298;52.560;13.508;2022-07-09T08:54:44;101685.25;;;18.97;100.00
13734;BME280;43298;52.560;13.508;2022-07-09T08:57:10;101687.91;;;19.25;100.00
13734;BME280;43298;52.560;13.508;2022-07-09T08:59:36;101677.00;;;19.17;100.00
13734;BME280;43298;52.560;13.508;2022-07-09T09:02:06;101672.31;;;19.36;100.00
13734;BME280;43298;52.560;13.508;2022-07-09T09:04:33;101683.06;;;19.46;100.00
13734;BME280;43298;52.560;13.508;2022-07-09T09:07:17;101680.47;;;19.32;100.00
13734;BME280;43298;52.560;13.508;2022-07-09T09:09:44;101675.72;;;19.10;100.00
13734;BME280;43298;52.560;13.508;2022-07-09T09:12:11;101677.66;;;19.07;100.00
13734;BME280;43298;52.560;13.508;2022-07-09T09:14:37;101678.25;;;18.84;100.00
13734;BME280;43298;52.560;13.508;2022-07-09T09:17:07;101683.56;;;18.68;100.00
13734;BME280;43298;52.560;13.508;2022-07-09T09:19:40;101689.28;;;18.89;100.00
13734;BME280;43298;52.560;13.508;2022-07-09T09:22:07;101686.19;;;18.96;100.00
13734;BME280;43298;52.560;13.508;2022-07-09T09:24:33;101684.69;;;18.78;100.00
13734;BME280;43298;52.560;13.508;2022-07-09T09:27:03;101685.06;;;18.72;100.00
13734;BME280;43298;52.560;13.508;2022-07-09T09:29:29;101686.53;;;18.62;100.00
13734;BME280;43298;52.560;13.508;2022-07-09T09:31:56;101694.16;;;18.37;100.00
13734;BME280;43298;52.560;13.508;2022-07-09T09:34:22;101709.84;;;18.08;100.00
13734;BME280;43298;52.560;13.508;2022-07-09T09:36:51;101701.72;;;17.51;100.00
13734;BME280;43298;52.560;13.508;2022-07-09T09:39:23;101690.28;;;16.89;100.00
13734;BME280;43298;52.560;13.508;2022-07-09T09:42:01;101694.75;;;16.70;100.00
13734;BME280;43298;52.560;13.508;2022-07-09T09:44:30;101688.94;;;16.48;100.00
13734;BME280;43298;52.560;13.508;2022-07-09T09:47:02;101683.69;;;16.31;100.00
13734;BME280;43298;52.560;13.508;2022-07-09T09:49:28;101680.84;;;16.18;100.00
13734;BME280;43298;52.560;13.508;2022-07-09T09:54:21;101663.59;;;16.33;100.00
13734;BME280;43298;52.560;13.508;2022-07-09T09:56:48;101659.03;;;16.36;100.00
13734;BME280;43298;52.560;13.508;2022-07-09T09:59:16;101662.59;;;16.69;100.00
13734;BME280;43298;52.560;13.508;2022-07-09T10:01:43;101671.31;;;16.68;100.00
13734;BME280;43298;52.560;13.508;2022-07-09T10:04:11;101659.47;;;16.78;100.00
13734;BME280;43298;52.560;13.508;2022-07-09T10:06:38;101665.59;;;16.94;100.00
13734;BME280;43298;52.560;13.508;2022-07-09T10:09:06;101659.31;;;17.14;100.00
13734;BME280;43298;52.560;13.508;2022-07-09T10:11:47;101662.75;;;17.30;100.00
13734;BME280;43298;52.560;13.508;2022-07-09T10:16:50;101657.72;;;17.89;100.00
13734;BME280;43298;52.560;13.508;2022-07-09T10:19:30;101651.97;;;18.12;100.00
13734;BME280;43298;52.560;13.508;2022-07-09T10:21:59;101655.31;;;18.00;100.00
13734;BME280;43298;52.560;13.508;2022-07-09T10:24:31;101649.94;;;18.17;100.00
13734;BME280;43298;52.560;13.508;2022-07-09T10:27:11;101648.38;;;18.29;100.00
13734;BME280;43298;52.560;13.508;2022-07-09T10:29:56;101656.22;;;18.58;100.00
13734;BME280;43298;52.560;13.508;2022-07-09T10:32:28;101657.44;;;18.53;100.00
13734;BME280;43298;52.560;13.508;2022-07-09T10:34:58;101647.81;;;18.81;100.00
13734;BME280;43298;52.560;13.508;2022-07-09T10:40:18;101646.25;;;19.47;100.00
13734;BME280;43298;52.560;13.508;2022-07-09T10:42:57;101642.28;;;19.54;100.00
13734;BME280;43298;52.560;13.508;2022-07-09T10:47:58;101640.81;;;19.77;100.00
13734;BME280;43298;52.560;13.508;2022-07-09T10:50:25;101641.19;;;19.71;100.00
13734;BME280;43298;52.560;13.508;2022-07-09T10:52:52;101629.97;;;20.08;100.00
13734;BME280;43298;52.560;13.508;2022-07-09T10:55:19;101631.59;;;20.10;100.00
13734;BME280;43298;52.560;13.508;2022-07-09T10:57:45;101625.28;;;20.13;100.00
13734;BME280;43298;52.560;13.508;2022-07-09T11:00:26;101607.41;;;21.06;100.00
13734;BME280;43298;52.560;13.508;2022-07-09T11:03:04;101604.78;;;22.00;100.00
13734;BME280;43298;52.560;13.508;2022-07-09T11:05:46;101599.38;;;21.67;100.00
13734;BME280;43298;52.560;13.508;2022-07-09T11:08:12;101606.59;;;21.76;100.00
13734;BME280;43298;52.560;13.508;2022-07-09T11:10:38;101603.28;;;21.14;100.00
13734;BME280;43298;52.560;13.508;2022-07-09T11:13:06;101603.53;;;20.99;100.00
13734;BME280;43298;52.560;13.508;2022-07-09T11:15:35;101598.25;;;20.99;100.00
13734;BME280;43298;52.560;13.508;2022-07-09T11:18:04;101606.03;;;21.60;100.00
13734;BME280;43298;52.560;13.508;2022-07-09T11:20:36;101591.66;;;22.22;100.00
13734;BME280;43298;52.560;13.508;2022-07-09T11:23:02;101592.72;;;21.74;100.00
13734;BME280;43298;52.560;13.508;2022-07-09T11:25:29;101594.63;;;22.52;100.00
13734;BME280;43298;52.560;13.508;2022-07-09T11:27:59;101588.59;;;22.83;100.00
13734;BME280;43298;52.560;13.508;2022-07-09T11:30:27;101579.75;;;22.62;100.00
13734;BME280;43298;52.560;13.508;2022-07-09T11:32:54;101580.97;;;22.01;100.00
13734;BME280;43298;52.560;13.508;2022-07-09T11:35:34;101575.91;;;21.64;100.00
13734;BME280;43298;52.560;13.508;2022-07-09T11:38:05;101578.75;;;21.14;100.00
13734;BME280;43298;52.560;13.508;2022-07-09T11:40:34;101580.03;;;21.32;100.00
13734;BME280;43298;52.560;13.508;2022-07-09T11:43:00;101575.84;;;21.29;100.00
13734;BME280;43298;52.560;13.508;2022-07-09T11:45:28;101576.75;;;21.41;100.00
13734;BME280;43298;52.560;13.508;2022-07-09T11:48:08;101562.84;;;21.15;100.00
13734;BME280;43298;52.560;13.508;2022-07-09T11:50:45;101578.38;;;21.31;100.00
13734;BME280;43298;52.560;13.508;2022-07-09T11:53:24;101574.56;;;21.35;100.00
13734;BME280;43298;52.560;13.508;2022-07-09T11:56:03;101567.50;;;21.59;100.00
13734;BME280;43298;52.560;13.508;2022-07-09T11:58:30;101563.91;;;21.60;100.00
13734;BME280;43298;52.560;13.508;2022-07-09T12:00:56;101568.66;;;21.31;100.00
13734;BME280;43298;52.560;13.508;2022-07-09T12:03:27;101561.44;;;21.69;100.00
13734;BME280;43298;52.560;13.508;2022-07-09T12:05:53;101554.84;;;21.98;100.00
13734;BME280;43298;52.560;13.508;2022-07-09T12:08:30;101550.06;;;21.92;100.00
13734;BME280;43298;52.560;13.508;2022-07-09T12:10:58;101554.13;;;21.96;100.00
13734;BME280;43298;52.560;13.508;2022-07-09T12:13:24;101550.31;;;21.42;100.00
13734;BME280;43298;52.560;13.508;2022-07-09T12:15:50;101561.78;;;21.18;100.00
13734;BME280;43298;52.560;13.508;2022-07-09T12:18:16;101561.41;;;21.11;100.00
13734;BME280;43298;52.560;13.508;2022-07-09T12:20:42;101555.44;;;20.84;100.00
13734;BME280;43298;52.560;13.508;2022-07-09T12:23:08;101553.34;;;20.89;100.00
13734;BME280;43298;52.560;13.508;2022-07-09T12:25:34;101542.78;;;21.14;100.00
13734;BME280;43298;52.560;13.508;2022-07-09T12:27:59;101555.84;;;20.91;100.00
13734;BME280;43298;52.560;13.508;2022-07-09T12:30:25;101550.28;;;20.83;100.00
13734;BME280;43298;52.560;13.508;2022-07-09T12:32:51;101548.84;;;20.66;100.00
13734;BME280;43298;52.560;13.508;2022-07-09T12:35:17;101546.38;;;20.39;100.00
13734;BME280;43298;52.560;13.508;2022-07-09T12:37:43;101544.69;;;20.38;100.00
13734;BME280;43298;52.560;13.508;2022-07-09T12:40:10;101548.59;;;20.20;100.00